Time;durP1;ratioP1;P1;durP2;ratioP2;P2;SDS_P1;SDS_P2;PMS_P1;PMS_P2;Temp;Humidity;BMP_temperature;BMP_pressure;BME280_temperature;BME280_humidity;BME280_pressure;Samples;Min_cycle;Max_cycle;Signal;HPM_P1;HPM_P2
2022/06/24 00:02:03;;;;;;;0.00;0.00;;;;;;;;;;5037219;28;20044;-91
2022/06/24 00:04:30;;;;;;;0.00;0.00;;;;;;;;;;5053552;28;20099;-92
2022/06/24 00:06:57;;;;;;;0.00;0.00;;;;;;;;;;5040612;28;20443;-92
2022/06/24 00:09:26;;;;;;;0.00;0.00;;;;;;;;;;5051780;28;20396;-92
2022/06/24 00:12:09;;;;;;;0.10;0.10;;;;;;;;;;5035183;28;20577;-92
2022/06/24 00:14:36;;;;;;;0.00;0.00;;;;;;;;;;5048960;28;20041;-92
2022/06/24 00:17:04;;;;;;;0.03;0.03;;;;;;;;;;5043922;28;20045;-92
2022/06/24 00:22:19;;;;;;;0.05;0.05;;;;;;;;;;5068165;28;20048;-92
2022/06/24 00:24:45;;;;;;;0.10;0.10;;;;;;;;;;5051683;28;20041;-91
2022/06/24 00:27:18;;;;;;;0.05;0.05;;;;;;;;;;5052925;28;20046;-92
2022/06/24 00:29:44;;;;;;;0.10;0.10;;;;;;;;;;5057032;28;20025;-92
2022/06/24 00:32:10;;;;;;;0.00;0.00;;;;;;;;;;5049058;28;20039;-93
2022/06/24 00:34:38;;;;;;;0.10;0.10;;;;;;;;;;5039856;28;20064;-93
2022/06/24 00:37:23;;;;;;;0.13;0.13;;;;;;;;;;5036092;28;20044;-92
2022/06/24 00:39:49;;;;;;;0.00;0.00;;;;;;;;;;5050465;28;20070;-93
2022/06/24 00:42:16;;;;;;;0.00;0.00;;;;;;;;;;5049198;28;20036;-91
2022/06/24 00:44:57;;;;;;;0.20;0.20;;;;;;;;;;5035943;28;20045;-91
2022/06/24 00:47:23;;;;;;;0.00;0.00;;;;;;;;;;5062268;28;20041;-92
2022/06/24 00:49:49;;;;;;;0.00;0.00;;;;;;;;;;5048463;28;20044;-92
2022/06/24 00:52:16;;;;;;;0.03;0.03;;;;;;;;;;5051492;28;20549;-93
2022/06/24 00:54:45;;;;;;;0.03;0.03;;;;;;;;;;5043287;28;20047;-93
2022/06/24 00:57:12;;;;;;;0.10;0.10;;;;;;;;;;5038529;28;20486;-92
2022/06/24 00:59:38;;;;;;;0.10;0.10;;;;;;;;;;5044423;28;20059;-91
2022/06/24 01:02:05;;;;;;;0.00;0.00;;;;;;;;;;5038398;28;20037;-92
2022/06/24 01:04:32;;;;;;;0.03;0.03;;;;;;;;;;5034843;28;20090;-93
2022/06/24 01:06:59;;;;;;;0.10;0.10;;;;;;;;;;5052195;28;20044;-92
2022/06/24 01:09:25;;;;;;;0.10;0.10;;;;;;;;;;5043720;28;20045;-92
2022/06/24 01:11:51;;;;;;;0.00;0.00;;;;;;;;;;5061963;28;20059;-91
2022/06/24 01:14:17;;;;;;;0.00;0.00;;;;;;;;;;5056284;28;20058;-92
2022/06/24 01:16:43;;;;;;;0.00;0.00;;;;;;;;;;5064871;28;20075;-92
2022/06/24 01:19:11;;;;;;;0.00;0.00;;;;;;;;;;5040919;28;20040;-92
2022/06/24 01:21:40;;;;;;;0.00;0.00;;;;;;;;;;5060873;28;20555;-92
2022/06/24 01:24:07;;;;;;;0.10;0.10;;;;;;;;;;5058493;28;20055;-90
2022/06/24 01:26:33;;;;;;;0.00;0.00;;;;;;;;;;5045858;28;20084;-92
2022/06/24 01:28:59;;;;;;;0.05;0.05;;;;;;;;;;5035983;28;20049;-93
2022/06/24 01:31:25;;;;;;;0.00;0.00;;;;;;;;;;5056665;28;20049;-91
2022/06/24 01:33:51;;;;;;;0.00;0.00;;;;;;;;;;5039643;28;20048;-91
2022/06/24 01:36:17;;;;;;;0.00;0.00;;;;;;;;;;5063074;28;20040;-91
2022/06/24 01:38:43;;;;;;;0.10;0.10;;;;;;;;;;5050993;28;20040;-92
2022/06/24 01:41:10;;;;;;;0.00;0.00;;;;;;;;;;5047325;28;20040;-92
2022/06/24 01:43:36;;;;;;;0.00;0.00;;;;;;;;;;5039384;28;20475;-93
2022/06/24 01:46:02;;;;;;;0.00;0.00;;;;;;;;;;5046721;28;20041;-92
2022/06/24 01:48:28;;;;;;;0.00;0.00;;;;;;;;;;5046395;28;20050;-93
2022/06/24 01:50:55;;;;;;;0.00;0.00;;;;;;;;;;5039429;28;20075;-93
2022/06/24 01:53:21;;;;;;;0.05;0.05;;;;;;;;;;5052852;28;20041;-93
2022/06/24 01:55:47;;;;;;;0.00;0.00;;;;;;;;;;5056179;28;20036;-91
2022/06/24 01:58:13;;;;;;;0.10;0.10;;;;;;;;;;5041904;28;20041;-93
2022/06/24 02:00:39;;;;;;;0.00;0.00;;;;;;;;;;5038706;28;20043;-93
2022/06/24 02:03:05;;;;;;;0.00;0.00;;;;;;;;;;5036306;28;20047;-93
2022/06/24 02:05:31;;;;;;;0.00;0.00;;;;;;;;;;5057030;28;20044;-92
2022/06/24 02:07:57;;;;;;;0.10;0.10;;;;;;;;;;5046233;28;20041;-93
2022/06/24 02:13:27;;;;;;;0.10;0.10;;;;;;;;;;5059635;28;20051;-93
2022/06/24 02:15:54;;;;;;;2.35;2.15;;;;;;;;;;5055932;28;20768;-92
2022/06/24 02:18:20;;;;;;;0.00;0.00;;;;;;;;;;5047147;28;20044;-93
2022/06/24 02:20:47;;;;;;;0.05;0.05;;;;;;;;;;5046933;28;20043;-92
2022/06/24 02:23:13;;;;;;;0.00;0.00;;;;;;;;;;5045771;28;20068;-92
2022/06/24 02:25:39;;;;;;;0.00;0.00;;;;;;;;;;5046369;28;20055;-91
2022/06/24 02:28:05;;;;;;;0.00;0.00;;;;;;;;;;5030587;28;20104;-92
2022/06/24 02:30:31;;;;;;;0.10;0.10;;;;;;;;;;5040479;28;20143;-92
2022/06/24 02:32:57;;;;;;;0.00;0.00;;;;;;;;;;5042718;28;20045;-92
2022/06/24 02:35:23;;;;;;;0.05;0.05;;;;;;;;;;5041995;28;20481;-90
2022/06/24 02:37:49;;;;;;;0.00;0.00;;;;;;;;;;5034271;28;20045;-91
2022/06/24 02:43:00;;;;;;;0.05;0.05;;;;;;;;;;5063234;28;20043;-93
2022/06/24 02:45:26;;;;;;;0.00;0.00;;;;;;;;;;5047065;28;20108;-93
2022/06/24 02:47:52;;;;;;;0.10;0.10;;;;;;;;;;5048304;28;20044;-93
2022/06/24 02:50:18;;;;;;;0.00;0.00;;;;;;;;;;5036067;28;20414;-94
2022/06/24 02:52:44;;;;;;;0.00;0.00;;;;;;;;;;5014526;28;20052;-94
2022/06/24 02:55:10;;;;;;;0.00;0.00;;;;;;;;;;5047030;28;20032;-93
2022/06/24 02:57:36;;;;;;;0.10;0.10;;;;;;;;;;5040609;28;20048;-94
2022/06/24 03:00:02;;;;;;;0.00;0.00;;;;;;;;;;5045186;28;20037;-94
2022/06/24 03:02:28;;;;;;;0.00;0.00;;;;;;;;;;5056045;28;20087;-92
2022/06/24 03:04:55;;;;;;;0.00;0.00;;;;;;;;;;5044650;28;20494;-93
2022/06/24 03:07:21;;;;;;;0.00;0.00;;;;;;;;;;5040318;28;20020;-93
2022/06/24 03:09:47;;;;;;;0.00;0.00;;;;;;;;;;5067642;28;20053;-92
2022/06/24 03:12:13;;;;;;;0.00;0.00;;;;;;;;;;5051539;28;20044;-92
2022/06/24 03:14:40;;;;;;;0.00;0.00;;;;;;;;;;5051621;28;20082;-92
2022/06/24 03:17:06;;;;;;;0.05;0.05;;;;;;;;;;5043396;28;20559;-93
2022/06/24 03:19:32;;;;;;;0.00;0.00;;;;;;;;;;5045940;28;20055;-92
2022/06/24 03:21:58;;;;;;;0.10;0.10;;;;;;;;;;5052426;28;20037;-92
2022/06/24 03:24:24;;;;;;;0.00;0.00;;;;;;;;;;5061814;28;20040;-93
2022/06/24 03:26:50;;;;;;;0.00;0.00;;;;;;;;;;5055511;28;20036;-91
2022/06/24 03:29:16;;;;;;;0.00;0.00;;;;;;;;;;5069986;28;20047;-91
2022/06/24 03:31:46;;;;;;;0.00;0.00;;;;;;;;;;5051611;28;20486;-92
2022/06/24 03:34:12;;;;;;;0.00;0.00;;;;;;;;;;5053304;28;20068;-92
2022/06/24 03:36:38;;;;;;;0.00;0.00;;;;;;;;;;5050728;28;20104;-92
2022/06/24 03:39:04;;;;;;;0.08;0.08;;;;;;;;;;5052023;28;20398;-92
2022/06/24 03:41:30;;;;;;;0.00;0.00;;;;;;;;;;5053392;28;20041;-92
2022/06/24 03:43:56;;;;;;;0.00;0.00;;;;;;;;;;5054954;28;20043;-93
2022/06/24 03:46:22;;;;;;;0.10;0.10;;;;;;;;;;5038020;28;20512;-93
2022/06/24 03:48:48;;;;;;;0.00;0.00;;;;;;;;;;5042626;28;20024;-93
2022/06/24 03:51:14;;;;;;;0.10;0.10;;;;;;;;;;5042542;28;20079;-94
2022/06/24 03:53:40;;;;;;;0.00;0.00;;;;;;;;;;5054731;28;20066;-94
2022/06/24 03:56:09;;;;;;;0.00;0.00;;;;;;;;;;5045153;28;20036;-92
2022/06/24 03:58:35;;;;;;;0.05;0.05;;;;;;;;;;5054020;28;20033;-93
2022/06/24 04:01:02;;;;;;;0.00;0.00;;;;;;;;;;5052954;28;20047;-95
2022/06/24 04:03:28;;;;;;;0.10;0.10;;;;;;;;;;5049921;28;20037;-92
2022/06/24 04:05:54;;;;;;;0.08;0.08;;;;;;;;;;5055950;28;20044;-94
2022/06/24 04:08:20;;;;;;;0.10;0.10;;;;;;;;;;5052986;28;20071;-92
2022/06/24 04:10:47;;;;;;;0.00;0.00;;;;;;;;;;5049667;28;20037;-93
2022/06/24 04:13:13;;;;;;;0.10;0.10;;;;;;;;;;5048061;28;20520;-94
2022/06/24 04:15:46;;;;;;;0.00;0.00;;;;;;;;;;5046801;28;20052;-93
2022/06/24 04:18:12;;;;;;;0.10;0.10;;;;;;;;;;5051362;28;20045;-94
2022/06/24 04:20:39;;;;;;;0.00;0.00;;;;;;;;;;5062194;28;20059;-96
2022/06/24 04:23:05;;;;;;;0.10;0.10;;;;;;;;;;5054951;28;20048;-94
2022/06/24 04:25:31;;;;;;;0.10;0.10;;;;;;;;;;5049018;28;20041;-94
2022/06/24 04:27:58;;;;;;;0.00;0.00;;;;;;;;;;5043682;28;20551;-92
2022/06/24 04:30:24;;;;;;;0.00;0.00;;;;;;;;;;5067924;28;20112;-91
2022/06/24 04:32:51;;;;;;;0.00;0.00;;;;;;;;;;5057773;28;20105;-96
2022/06/24 04:35:17;;;;;;;0.10;0.10;;;;;;;;;;5079875;28;20040;-96
2022/06/24 04:37:43;;;;;;;0.20;0.20;;;;;;;;;;5046405;28;20789;-93
2022/06/24 04:40:11;;;;;;;0.10;0.10;;;;;;;;;;5030036;28;20497;-94
2022/06/24 04:42:37;;;;;;;0.00;0.00;;;;;;;;;;5048083;28;20028;-95
2022/06/24 04:45:04;;;;;;;0.00;0.00;;;;;;;;;;5058574;28;20032;-95
2022/06/24 04:47:30;;;;;;;0.10;0.10;;;;;;;;;;5053237;28;20067;-93
2022/06/24 04:50:01;;;;;;;0.00;0.00;;;;;;;;;;5073792;28;20044;-96
2022/06/24 04:52:27;;;;;;;0.10;0.10;;;;;;;;;;5037330;28;20040;-94
2022/06/24 04:54:53;;;;;;;0.08;0.08;;;;;;;;;;5057337;28;20047;-93
2022/06/24 04:57:20;;;;;;;0.00;0.00;;;;;;;;;;5051532;28;20518;-94
2022/06/24 04:59:49;;;;;;;0.10;0.10;;;;;;;;;;5040674;28;20013;-92
2022/06/24 05:02:16;;;;;;;0.05;0.05;;;;;;;;;;5057013;28;20027;-93
2022/06/24 05:04:44;;;;;;;0.10;0.10;;;;;;;;;;5070701;28;20040;-96
2022/06/24 05:07:11;;;;;;;0.03;0.03;;;;;;;;;;5074288;28;20074;-91
2022/06/24 05:09:37;;;;;;;0.10;0.10;;;;;;;;;;5083973;28;20037;-93
2022/06/24 05:12:03;;;;;;;0.00;0.00;;;;;;;;;;5054371;28;20536;-95
2022/06/24 05:14:30;;;;;;;0.00;0.00;;;;;;;;;;5038805;28;20043;-95
2022/06/24 05:16:57;;;;;;;0.10;0.10;;;;;;;;;;5049103;28;20021;-94
2022/06/24 05:19:23;;;;;;;0.08;0.08;;;;;;;;;;5058606;28;20064;-93
2022/06/24 05:21:49;;;;;;;0.00;0.00;;;;;;;;;;5051498;28;20090;-94
2022/06/24 05:24:15;;;;;;;0.00;0.00;;;;;;;;;;5045295;28;20044;-94
2022/06/24 05:26:42;;;;;;;0.00;0.00;;;;;;;;;;5041409;28;20048;-95
2022/06/24 05:29:08;;;;;;;0.20;0.20;;;;;;;;;;5053029;28;20121;-94
2022/06/24 05:31:34;;;;;;;0.00;0.00;;;;;;;;;;5052104;28;20570;-95
2022/06/24 05:34:00;;;;;;;0.00;0.00;;;;;;;;;;5049501;28;20055;-96
2022/06/24 05:36:27;;;;;;;0.00;0.00;;;;;;;;;;5043271;28;20506;-96
2022/06/24 05:38:53;;;;;;;0.08;0.08;;;;;;;;;;5062795;28;20036;-94
2022/06/24 05:41:19;;;;;;;0.00;0.00;;;;;;;;;;5056693;28;20752;-95
2022/06/24 05:43:48;;;;;;;0.00;0.00;;;;;;;;;;5039764;28;20494;-95
2022/06/24 05:46:17;;;;;;;0.00;0.00;;;;;;;;;;5042453;28;20051;-95
2022/06/24 05:48:43;;;;;;;0.00;0.00;;;;;;;;;;5050993;28;20489;-96
2022/06/24 05:51:09;;;;;;;0.00;0.00;;;;;;;;;;5049321;28;20037;-95
2022/06/24 05:56:20;;;;;;;0.00;0.00;;;;;;;;;;5073050;28;20052;-95
2022/06/24 05:58:46;;;;;;;0.10;0.10;;;;;;;;;;5049296;28;20485;-95
2022/06/24 06:01:12;;;;;;;0.05;0.05;;;;;;;;;;5042876;28;20120;-93
2022/06/24 06:03:39;;;;;;;0.00;0.00;;;;;;;;;;5043617;28;20060;-95
2022/06/24 06:06:06;;;;;;;0.00;0.00;;;;;;;;;;5044206;28;20032;-95
2022/06/24 06:08:32;;;;;;;0.00;0.00;;;;;;;;;;5051885;28;20032;-95
2022/06/24 06:10:58;;;;;;;0.05;0.05;;;;;;;;;;5050440;28;20037;-94
2022/06/24 06:13:24;;;;;;;0.00;0.00;;;;;;;;;;5051363;28;20042;-95
2022/06/24 06:15:50;;;;;;;0.00;0.00;;;;;;;;;;5038341;28;20055;-94
2022/06/24 06:18:17;;;;;;;0.08;0.08;;;;;;;;;;5044973;28;20041;-94
2022/06/24 06:20:44;;;;;;;0.03;0.03;;;;;;;;;;5050450;28;20202;-96
2022/06/24 06:23:11;;;;;;;0.10;0.10;;;;;;;;;;5047008;28;20017;-95
2022/06/24 06:25:37;;;;;;;0.10;0.10;;;;;;;;;;5056605;28;20035;-94
2022/06/24 06:28:04;;;;;;;0.05;0.05;;;;;;;;;;5049626;28;20041;-93
2022/06/24 06:30:32;;;;;;;0.00;0.00;;;;;;;;;;5052718;28;20055;-90
2022/06/24 06:32:58;;;;;;;0.08;0.08;;;;;;;;;;5054827;28;20076;-94
2022/06/24 06:35:24;;;;;;;0.10;0.10;;;;;;;;;;5055635;28;20082;-94
2022/06/24 06:37:50;;;;;;;0.20;0.20;;;;;;;;;;5058505;28;20037;-93
2022/06/24 06:40:18;;;;;;;0.00;0.00;;;;;;;;;;5057792;28;20064;-93
2022/06/24 06:42:44;;;;;;;0.10;0.10;;;;;;;;;;5054511;28;20040;-92
2022/06/24 06:45:10;;;;;;;0.00;0.00;;;;;;;;;;5060306;28;20083;-94
2022/06/24 06:47:36;;;;;;;0.10;0.10;;;;;;;;;;5070053;28;20047;-93
2022/06/24 06:50:04;;;;;;;0.03;0.03;;;;;;;;;;5044163;28;20114;-93
2022/06/24 06:52:30;;;;;;;0.00;0.00;;;;;;;;;;5066319;28;20040;-93
2022/06/24 06:54:56;;;;;;;0.10;0.10;;;;;;;;;;5057431;28;20086;-92
2022/06/24 06:57:22;;;;;;;0.00;0.00;;;;;;;;;;5054229;28;20075;-93
2022/06/24 06:59:49;;;;;;;0.00;0.00;;;;;;;;;;5047731;28;20040;-92
2022/06/24 07:02:15;;;;;;;0.10;0.10;;;;;;;;;;5046022;28;20041;-90
2022/06/24 07:04:41;;;;;;;0.00;0.00;;;;;;;;;;5036802;28;20033;-92
2022/06/24 07:07:07;;;;;;;0.00;0.00;;;;;;;;;;5029092;28;20467;-92
2022/06/24 07:09:33;;;;;;;0.00;0.00;;;;;;;;;;5055556;28;20422;-94
2022/06/24 07:11:59;;;;;;;0.03;0.03;;;;;;;;;;5052254;28;20033;-93
2022/06/24 07:14:25;;;;;;;0.00;0.00;;;;;;;;;;5052003;28;20048;-92
2022/06/24 07:16:51;;;;;;;0.00;0.00;;;;;;;;;;5047275;28;20033;-91
2022/06/24 07:19:24;;;;;;;0.10;0.10;;;;;;;;;;5049594;28;20044;-92
2022/06/24 07:21:50;;;;;;;0.10;0.10;;;;;;;;;;5050434;28;20048;-92
2022/06/24 07:24:16;;;;;;;0.00;0.00;;;;;;;;;;5051323;28;20076;-92
2022/06/24 07:26:43;;;;;;;0.00;0.00;;;;;;;;;;5051031;28;20040;-90
2022/06/24 07:29:09;;;;;;;0.00;0.00;;;;;;;;;;5053364;28;20040;-90
2022/06/24 07:31:35;;;;;;;0.00;0.00;;;;;;;;;;5053326;28;20059;-91
2022/06/24 07:34:06;;;;;;;0.10;0.10;;;;;;;;;;5047698;28;20056;-91
2022/06/24 07:36:32;;;;;;;0.10;0.10;;;;;;;;;;5056946;28;20047;-90
2022/06/24 07:38:59;;;;;;;0.10;0.10;;;;;;;;;;5056594;28;20509;-91
2022/06/24 07:41:26;;;;;;;0.10;0.10;;;;;;;;;;5069220;28;20072;-91
2022/06/24 07:43:52;;;;;;;0.00;0.00;;;;;;;;;;5050078;28;20032;-91
2022/06/24 07:46:18;;;;;;;0.10;0.10;;;;;;;;;;5048300;28;20037;-91
2022/06/24 07:48:44;;;;;;;0.00;0.00;;;;;;;;;;5051152;28;20040;-91
2022/06/24 07:51:11;;;;;;;0.03;0.03;;;;;;;;;;5047440;28;20371;-91
2022/06/24 07:53:37;;;;;;;0.13;0.13;;;;;;;;;;5044115;28;20033;-91
2022/06/24 07:58:48;;;;;;;0.00;0.00;;;;;;;;;;5063370;28;20123;-91
2022/06/24 08:01:14;;;;;;;0.03;0.03;;;;;;;;;;5054995;28;20040;-91
2022/06/24 08:03:41;;;;;;;0.00;0.00;;;;;;;;;;5052294;28;20158;-92
2022/06/24 08:06:19;;;;;;;0.00;0.00;;;;;;;;;;5049981;28;20056;-92
2022/06/24 08:08:45;;;;;;;0.00;0.00;;;;;;;;;;5060610;28;20242;-91
2022/06/24 08:11:11;;;;;;;0.08;0.08;;;;;;;;;;5073965;28;20044;-91
2022/06/24 08:13:38;;;;;;;0.10;0.10;;;;;;;;;;5045044;28;20043;-91
2022/06/24 08:16:11;;;;;;;0.00;0.00;;;;;;;;;;5042241;28;20067;-91
2022/06/24 08:18:39;;;;;;;0.00;0.00;;;;;;;;;;5034139;28;20041;-92
2022/06/24 08:21:05;;;;;;;0.00;0.00;;;;;;;;;;5038331;28;20048;-91
2022/06/24 08:23:31;;;;;;;0.10;0.10;;;;;;;;;;5045289;28;20040;-92
2022/06/24 08:25:57;;;;;;;0.00;0.00;;;;;;;;;;5043094;28;20046;-91
2022/06/24 08:28:23;;;;;;;0.00;0.00;;;;;;;;;;5051156;28;20040;-91
2022/06/24 08:30:49;;;;;;;0.10;0.10;;;;;;;;;;5051487;28;20117;-92
2022/06/24 08:33:19;;;;;;;0.00;0.00;;;;;;;;;;5053776;28;20039;-93
2022/06/24 08:35:45;;;;;;;0.00;0.00;;;;;;;;;;5043116;28;20073;-91
2022/06/24 08:38:11;;;;;;;0.00;0.00;;;;;;;;;;5046194;28;20033;-90
2022/06/24 08:40:37;;;;;;;0.00;0.00;;;;;;;;;;5040327;28;20087;-93
2022/06/24 08:43:03;;;;;;;0.00;0.00;;;;;;;;;;5033055;28;20041;-92
2022/06/24 08:45:30;;;;;;;0.00;0.00;;;;;;;;;;5060501;28;20047;-91
2022/06/24 08:47:56;;;;;;;0.10;0.10;;;;;;;;;;5041102;28;20068;-92
2022/06/24 08:50:22;;;;;;;0.00;0.00;;;;;;;;;;5050132;28;20039;-89
2022/06/24 08:52:52;;;;;;;0.00;0.00;;;;;;;;;;5042909;28;20059;-92
2022/06/24 08:55:19;;;;;;;0.10;0.10;;;;;;;;;;5067759;28;20090;-92
2022/06/24 08:57:46;;;;;;;0.10;0.10;;;;;;;;;;5051741;28;20493;-91
2022/06/24 09:00:12;;;;;;;0.00;0.00;;;;;;;;;;5048264;28;20044;-91
2022/06/24 09:02:39;;;;;;;0.00;0.00;;;;;;;;;;5045941;28;20448;-91
2022/06/24 09:05:15;;;;;;;0.00;0.00;;;;;;;;;;5044394;28;20060;-90
2022/06/24 09:07:41;;;;;;;0.08;0.08;;;;;;;;;;5050776;28;20061;-91
2022/06/24 09:10:12;;;;;;;0.47;0.47;;;;;;;;;;5043446;28;20025;-91
2022/06/24 09:12:39;;;;;;;0.00;0.00;;;;;;;;;;5040780;28;20040;-91
2022/06/24 09:15:11;;;;;;;0.00;0.00;;;;;;;;;;5032963;28;20037;-90
2022/06/24 09:17:37;;;;;;;0.00;0.00;;;;;;;;;;5043957;28;20039;-95
2022/06/24 09:20:07;;;;;;;0.00;0.00;;;;;;;;;;5047364;28;20068;-94
2022/06/24 09:22:33;;;;;;;0.00;0.00;;;;;;;;;;5052441;28;20036;-95
2022/06/24 09:25:03;;;;;;;0.10;0.10;;;;;;;;;;5052511;28;20040;-93
2022/06/24 09:27:29;;;;;;;0.00;0.00;;;;;;;;;;5057761;28;20096;-89
2022/06/24 09:29:55;;;;;;;0.10;0.10;;;;;;;;;;5045312;28;20041;-89
2022/06/24 09:32:22;;;;;;;0.00;0.00;;;;;;;;;;5063596;28;20048;-90
2022/06/24 09:35:17;;;;;;;0.10;0.10;;;;;;;;;;5044783;28;20037;-89
2022/06/24 09:37:45;;;;;;;0.15;0.15;;;;;;;;;;5047648;28;20055;-89
2022/06/24 09:40:19;;;;;;;0.10;0.10;;;;;;;;;;5039394;28;20032;-89
2022/06/24 09:42:56;;;;;;;0.00;0.00;;;;;;;;;;5043491;28;20064;-88
2022/06/24 09:45:22;;;;;;;0.10;0.10;;;;;;;;;;5039336;28;20042;-88
2022/06/24 09:47:49;;;;;;;0.08;0.08;;;;;;;;;;5039225;28;20041;-87
2022/06/24 09:50:16;;;;;;;0.10;0.10;;;;;;;;;;5039628;28;20105;-87
2022/06/24 09:52:43;;;;;;;0.10;0.10;;;;;;;;;;5040759;28;20169;-88
2022/06/24 09:55:10;;;;;;;0.00;0.00;;;;;;;;;;5060052;28;20036;-88
2022/06/24 09:57:36;;;;;;;0.00;0.00;;;;;;;;;;5038644;28;20047;-88
2022/06/24 10:02:50;;;;;;;0.03;0.03;;;;;;;;;;5062106;28;20047;-87
2022/06/24 10:05:18;;;;;;;0.00;0.00;;;;;;;;;;5036316;28;20032;-87
2022/06/24 10:07:49;;;;;;;0.00;0.00;;;;;;;;;;5041553;28;20099;-88
2022/06/24 10:10:17;;;;;;;0.00;0.00;;;;;;;;;;5036730;28;20123;-87
2022/06/24 10:12:57;;;;;;;0.00;0.00;;;;;;;;;;5038659;28;20037;-87
2022/06/24 10:15:23;;;;;;;0.10;0.10;;;;;;;;;;5040788;28;20036;-88
2022/06/24 10:17:49;;;;;;;0.00;0.00;;;;;;;;;;5047645;28;20044;-88
2022/06/24 10:20:23;;;;;;;0.10;0.10;;;;;;;;;;5038300;28;20079;-87
2022/06/24 10:22:50;;;;;;;0.10;0.10;;;;;;;;;;5038648;28;20075;-87
2022/06/24 10:25:36;;;;;;;0.10;0.10;;;;;;;;;;5042810;28;20048;-88
2022/06/24 10:28:05;;;;;;;0.00;0.00;;;;;;;;;;5028168;28;20044;-89
2022/06/24 10:30:40;;;;;;;0.10;0.10;;;;;;;;;;5036673;28;20075;-89
2022/06/24 10:33:20;;;;;;;0.00;0.00;;;;;;;;;;5036623;28;20044;-88
2022/06/24 10:36:03;;;;;;;0.10;0.10;;;;;;;;;;5048841;28;20045;-89
2022/06/24 10:38:35;;;;;;;0.00;0.00;;;;;;;;;;5059253;28;20549;-89
2022/06/24 10:41:02;;;;;;;0.10;0.10;;;;;;;;;;5039970;28;20474;-89
2022/06/24 10:43:47;;;;;;;0.00;0.00;;;;;;;;;;5054808;28;20048;-87
2022/06/24 10:46:13;;;;;;;0.00;0.00;;;;;;;;;;5026526;28;20079;-87
2022/06/24 10:48:52;;;;;;;0.00;0.00;;;;;;;;;;5036368;28;20058;-87
2022/06/24 10:51:19;;;;;;;0.10;0.10;;;;;;;;;;5039308;28;20105;-87
2022/06/24 10:54:06;;;;;;;0.00;0.00;;;;;;;;;;5047533;28;20053;-87
2022/06/24 10:56:44;;;;;;;0.03;0.03;;;;;;;;;;5037343;28;20067;-86
2022/06/24 10:59:20;;;;;;;0.08;0.08;;;;;;;;;;5032951;28;20478;-87
2022/06/24 11:01:47;;;;;;;0.00;0.00;;;;;;;;;;5020435;28;20072;-87
2022/06/24 11:04:15;;;;;;;0.10;0.10;;;;;;;;;;5051767;28;20037;-87
2022/06/24 11:07:00;;;;;;;0.08;0.08;;;;;;;;;;5041157;28;20041;-87
2022/06/24 11:09:28;;;;;;;0.08;0.08;;;;;;;;;;5059351;28;20474;-86
2022/06/24 11:11:56;;;;;;;0.10;0.10;;;;;;;;;;5041877;28;20076;-87
2022/06/24 11:14:25;;;;;;;0.00;0.00;;;;;;;;;;5036124;28;20029;-87
2022/06/24 11:16:51;;;;;;;0.17;0.17;;;;;;;;;;5040643;28;20033;-87
2022/06/24 11:19:19;;;;;;;0.20;0.20;;;;;;;;;;5039636;28;20150;-87
2022/06/24 11:21:46;;;;;;;0.10;0.10;;;;;;;;;;5033873;28;20401;-88
2022/06/24 11:24:13;;;;;;;0.08;0.08;;;;;;;;;;5044223;28;20405;-88
2022/06/24 11:27:02;;;;;;;0.20;0.20;;;;;;;;;;5041918;28;20522;-85
2022/06/24 11:29:28;;;;;;;0.10;0.10;;;;;;;;;;5063000;28;20033;-86
2022/06/24 11:31:56;;;;;;;0.05;0.05;;;;;;;;;;5037778;28;20055;-86
2022/06/24 11:34:26;;;;;;;0.10;0.10;;;;;;;;;;5036563;28;20097;-86
2022/06/24 11:36:52;;;;;;;0.00;0.00;;;;;;;;;;5062518;28;20048;-88
2022/06/24 11:39:19;;;;;;;0.00;0.00;;;;;;;;;;5041489;28;20054;-86
2022/06/24 11:41:48;;;;;;;0.00;0.00;;;;;;;;;;5054676;28;20040;-86
2022/06/24 11:44:14;;;;;;;0.00;0.00;;;;;;;;;;5062901;28;20044;-87
2022/06/24 11:46:55;;;;;;;0.05;0.05;;;;;;;;;;5041289;28;20039;-88
2022/06/24 11:49:22;;;;;;;0.03;0.03;;;;;;;;;;5044828;28;20513;-90
2022/06/24 11:51:49;;;;;;;0.05;0.05;;;;;;;;;;5048295;28;20044;-90
2022/06/24 11:54:16;;;;;;;0.10;0.10;;;;;;;;;;5042164;28;20044;-90
2022/06/24 11:56:43;;;;;;;0.00;0.00;;;;;;;;;;5044540;28;20040;-88
2022/06/24 11:59:09;;;;;;;0.08;0.08;;;;;;;;;;5045482;28;20033;-88
2022/06/24 12:01:38;;;;;;;0.10;0.10;;;;;;;;;;5042304;28;20041;-89
2022/06/24 12:04:07;;;;;;;0.00;0.00;;;;;;;;;;5061899;28;20079;-88
2022/06/24 12:06:34;;;;;;;0.00;0.00;;;;;;;;;;5028584;28;20044;-89
2022/06/24 12:09:00;;;;;;;0.00;0.00;;;;;;;;;;5031390;28;20041;-89
2022/06/24 12:11:26;;;;;;;0.00;0.00;;;;;;;;;;5030845;28;20045;-89
2022/06/24 12:14:00;;;;;;;0.00;0.00;;;;;;;;;;5074382;28;20131;-88
2022/06/24 12:16:26;;;;;;;0.00;0.00;;;;;;;;;;5043893;28;20036;-90
2022/06/24 12:18:53;;;;;;;0.00;0.00;;;;;;;;;;5046016;28;20044;-89
2022/06/24 12:21:26;;;;;;;0.00;0.00;;;;;;;;;;5049466;28;20458;-89
2022/06/24 12:23:53;;;;;;;0.00;0.00;;;;;;;;;;5061909;28;20123;-89
2022/06/24 12:26:20;;;;;;;0.00;0.00;;;;;;;;;;5040430;28;20131;-88
2022/06/24 12:28:57;;;;;;;0.00;0.00;;;;;;;;;;5046038;28;20417;-89
2022/06/24 12:31:23;;;;;;;0.03;0.03;;;;;;;;;;5050267;28;20131;-89
2022/06/24 12:33:51;;;;;;;0.00;0.00;;;;;;;;;;5053863;28;20098;-88
2022/06/24 12:36:21;;;;;;;0.08;0.08;;;;;;;;;;5045982;28;20037;-89
2022/06/24 12:38:53;;;;;;;0.10;0.10;;;;;;;;;;5048814;28;20094;-88
2022/06/24 12:41:21;;;;;;;0.00;0.00;;;;;;;;;;5038634;28;20074;-87
2022/06/24 12:43:57;;;;;;;0.03;0.03;;;;;;;;;;5061208;28;20040;-88
2022/06/24 12:46:24;;;;;;;0.00;0.00;;;;;;;;;;5066582;28;20119;-87
2022/06/24 12:51:44;;;;;;;0.00;0.00;;;;;;;;;;5060332;28;20052;-89
2022/06/24 12:54:12;;;;;;;0.10;0.10;;;;;;;;;;5061854;28;20051;-90
2022/06/24 12:56:38;;;;;;;0.10;0.10;;;;;;;;;;5044077;28;20486;-89
2022/06/24 12:59:04;;;;;;;0.10;0.10;;;;;;;;;;5047465;28;20056;-89
2022/06/24 13:01:31;;;;;;;0.00;0.00;;;;;;;;;;5043511;28;20436;-88
2022/06/24 13:03:59;;;;;;;0.00;0.00;;;;;;;;;;5046101;28;20044;-92
2022/06/24 13:06:25;;;;;;;0.00;0.00;;;;;;;;;;5038021;28;20405;-92
2022/06/24 13:08:51;;;;;;;0.00;0.00;;;;;;;;;;5039736;28;20044;-90
2022/06/24 13:11:17;;;;;;;0.13;0.13;;;;;;;;;;5048741;28;20559;-90
2022/06/24 13:13:43;;;;;;;0.00;0.00;;;;;;;;;;5046655;28;20027;-90
2022/06/24 13:16:09;;;;;;;0.00;0.00;;;;;;;;;;5067046;28;20040;-88
2022/06/24 13:18:35;;;;;;;0.08;0.08;;;;;;;;;;5038223;28;20045;-88
2022/06/24 13:21:08;;;;;;;0.00;0.00;;;;;;;;;;5044416;28;20048;-91
2022/06/24 13:23:34;;;;;;;0.00;0.00;;;;;;;;;;5037145;28;20198;-91
2022/06/24 13:26:05;;;;;;;0.10;0.10;;;;;;;;;;5032638;28;20080;-92
2022/06/24 13:28:31;;;;;;;0.10;0.10;;;;;;;;;;5045110;28;20043;-90
2022/06/24 13:30:57;;;;;;;0.10;0.10;;;;;;;;;;5043576;28;20052;-90
2022/06/24 13:33:23;;;;;;;0.10;0.10;;;;;;;;;;5056186;28;20040;-89
2022/06/24 13:35:49;;;;;;;0.00;0.00;;;;;;;;;;5052382;28;20442;-92
2022/06/24 13:38:15;;;;;;;0.00;0.00;;;;;;;;;;5042431;28;20032;-90
2022/06/24 13:40:41;;;;;;;0.00;0.00;;;;;;;;;;5038861;28;20043;-90
2022/06/24 13:43:08;;;;;;;0.10;0.10;;;;;;;;;;5051951;28;20044;-90
2022/06/24 13:45:45;;;;;;;0.00;0.00;;;;;;;;;;5049484;28;20047;-91
2022/06/24 13:48:12;;;;;;;0.00;0.00;;;;;;;;;;5039605;28;20417;-89
2022/06/24 13:50:38;;;;;;;0.20;0.20;;;;;;;;;;5042327;28;20512;-91
2022/06/24 13:53:04;;;;;;;0.00;0.00;;;;;;;;;;5060900;28;20048;-91
2022/06/24 13:55:31;;;;;;;0.00;0.00;;;;;;;;;;5048991;28;20096;-91
2022/06/24 13:57:58;;;;;;;0.08;0.08;;;;;;;;;;5040206;28;20104;-91
2022/06/24 14:00:27;;;;;;;0.00;0.00;;;;;;;;;;5044335;28;20036;-91
2022/06/24 14:02:53;;;;;;;0.00;0.00;;;;;;;;;;5043687;28;20036;-91
2022/06/24 14:05:19;;;;;;;0.00;0.00;;;;;;;;;;5044231;28;20040;-92
2022/06/24 14:07:45;;;;;;;0.00;0.00;;;;;;;;;;5038668;28;20048;-91
2022/06/24 14:10:12;;;;;;;0.00;0.00;;;;;;;;;;5052676;28;20044;-91
2022/06/24 14:12:38;;;;;;;0.00;0.00;;;;;;;;;;5046367;28;20040;-90
2022/06/24 14:15:10;;;;;;;0.10;0.10;;;;;;;;;;5044877;28;20132;-94
2022/06/24 14:17:37;;;;;;;0.00;0.00;;;;;;;;;;5043242;28;20037;-92
2022/06/24 14:20:03;;;;;;;0.00;0.00;;;;;;;;;;5037919;28;20056;-91
2022/06/24 14:22:30;;;;;;;0.03;0.03;;;;;;;;;;5058110;28;20799;-90
2022/06/24 14:24:56;;;;;;;0.00;0.00;;;;;;;;;;5022393;28;20028;-91
2022/06/24 14:27:22;;;;;;;0.00;0.00;;;;;;;;;;5041199;28;20044;-91
2022/06/24 14:29:57;;;;;;;0.00;0.00;;;;;;;;;;5046445;28;20059;-90
2022/06/24 14:32:52;;;;;;;0.00;0.00;;;;;;;;;;5049968;28;20051;-90
2022/06/24 14:35:18;;;;;;;0.00;0.00;;;;;;;;;;5057026;28;20033;-90
2022/06/24 14:40:36;;;;;;;0.00;0.00;;;;;;;;;;5059816;28;20071;-90
2022/06/24 14:43:03;;;;;;;0.10;0.10;;;;;;;;;;5043350;28;20130;-90
2022/06/24 14:45:32;;;;;;;0.00;0.00;;;;;;;;;;5043325;28;20798;-91
2022/06/24 14:48:02;;;;;;;0.10;0.10;;;;;;;;;;5037197;28;20048;-91
2022/06/24 14:50:29;;;;;;;0.00;0.00;;;;;;;;;;5047739;28;20041;-90
2022/06/24 14:53:01;;;;;;;0.00;0.00;;;;;;;;;;5042417;28;20047;-90
2022/06/24 14:55:33;;;;;;;0.00;0.00;;;;;;;;;;5047560;28;20036;-89
2022/06/24 14:58:02;;;;;;;0.00;0.00;;;;;;;;;;5048406;28;20451;-90
2022/06/24 15:00:40;;;;;;;0.10;0.10;;;;;;;;;;5042244;28;20036;-89
2022/06/24 15:03:12;;;;;;;0.00;0.00;;;;;;;;;;5044873;28;20071;-91
2022/06/24 15:05:44;;;;;;;0.00;0.00;;;;;;;;;;5062324;28;20037;-89
2022/06/24 15:08:12;;;;;;;0.00;0.00;;;;;;;;;;5049610;28;20044;-88
2022/06/24 15:10:45;;;;;;;0.00;0.00;;;;;;;;;;5040837;28;20672;-90